< < Back
Terminal Aerodrome Forecast


Current Version              Previous Versions:   1  2  3  4  5  6  7  8  9  

Terminal Aerodrome Forecast

633
FTUS42 KGSP 250500
TAFGSP
TAF
KGSP 250535Z 2506/2606 00000KT P6SM BKN060
     FM250900 04003KT 5SM BR BKN070
     FM251100 03004KT 4SM BR BKN020
     FM251300 03006KT P6SM BKN024
     FM251500 05007KT P6SM SCT030
     FM252000 11004KT P6SM SCT045
     FM260300 00000KT P6SM SCT045=

Latest METAR

323
SAUS70 KWBC 250800
MTRGSP
METAR KGSP 250753Z AUTO 05004KT 10SM BKN060 22/19 A2998 RMK AO2 SLP140
T02220194


USA.gov is the U.S. government's official web portal to all federal, state and local government web resources and services.